createdAt,value
2023-02-22T00:03:18.006Z,100067.45
2023-02-22T00:08:30.617Z,100075.61
2023-02-22T00:13:33.833Z,100079.95
2023-02-22T00:18:37.980Z,100090.12
2023-02-22T00:23:49.899Z,100090.61
2023-02-22T00:28:54.437Z,100097.27
2023-02-22T00:33:57.430Z,100108.29
2023-02-22T00:39:00.336Z,100115.06
2023-02-22T00:44:03.346Z,100114.59
2023-02-22T00:49:06.860Z,100122.67
2023-02-22T00:54:10.837Z,100136.75
2023-02-22T00:59:13.796Z,100142.50
2023-02-22T01:04:18.550Z,100143.13
2023-02-22T01:09:22.520Z,100146.33
2023-02-22T01:14:27.988Z,100154.00
2023-02-22T01:19:32.430Z,100164.09
2023-02-22T01:24:35.380Z,100164.69
2023-02-22T01:29:39.560Z,100174.10
2023-02-22T01:34:42.721Z,100179.16
2023-02-22T01:39:45.938Z,100186.86
2023-02-22T01:45:28.053Z,100192.16
2023-02-22T01:50:35.302Z,100194.33
2023-02-22T01:55:39.176Z,100195.59
2023-02-22T02:00:44.877Z,100196.21
2023-02-22T02:05:50.216Z,100196.69
2023-02-22T02:10:55.169Z,100201.07
2023-02-22T02:15:58.280Z,100202.60
2023-02-22T02:21:29.038Z,100202.77
2023-02-22T02:26:53.784Z,100203.94
2023-02-22T02:32:18.598Z,100214.01
2023-02-22T02:37:40.109Z,100218.70
2023-02-22T02:42:51.409Z,100223.56
2023-02-22T02:47:59.023Z,100225.84
2023-02-22T02:53:08.277Z,100230.05
2023-02-22T02:58:18.288Z,100234.27
2023-02-22T03:03:23.818Z,100237.54
2023-02-22T03:08:39.946Z,100247.86
2023-02-22T03:14:37.308Z,100250.94
2023-02-22T03:19:43.185Z,100253.09
2023-02-22T03:24:53.974Z,100257.71
2023-02-22T03:30:02.406Z,100267.39
2023-02-22T03:35:12.176Z,100269.45
2023-02-22T03:40:36.707Z,100277.48
2023-02-22T03:45:43.667Z,100286.03
2023-02-22T03:50:47.630Z,100290.27
2023-02-22T03:55:55.743Z,100292.63
2023-02-22T04:00:59.284Z,100293.23
2023-02-22T04:12:38.316Z,100306.83
2023-02-22T04:17:41.885Z,100309.34
2023-02-22T04:22:44.885Z,100313.05
2023-02-22T04:27:48.101Z,100318.13
2023-02-22T04:32:51.212Z,100321.89
2023-02-22T04:37:54.208Z,100328.76
2023-02-22T04:42:57.319Z,100328.52
2023-02-22T04:48:00.523Z,100332.14
2023-02-22T04:53:03.845Z,100334.25
2023-02-22T04:58:09.374Z,100339.42
2023-02-22T05:03:12.628Z,100343.55
2023-02-22T05:08:15.725Z,100340.80
2023-02-22T05:13:18.941Z,100343.81
2023-02-22T05:18:21.944Z,100350.31
2023-02-22T05:23:24.947Z,100357.77
2023-02-22T05:28:28.058Z,100361.30
2023-02-22T05:33:31.063Z,100367.51
2023-02-22T05:38:34.873Z,100374.36
2023-02-22T05:43:38.908Z,100378.33
2023-02-22T05:48:41.827Z,100380.75
2023-02-22T05:53:44.830Z,100387.48
2023-02-22T05:58:48.044Z,100390.48
2023-02-22T06:03:52.048Z,100379.27
2023-02-22T06:08:54.979Z,100378.95
2023-02-22T06:13:58.083Z,100375.52
2023-02-22T06:19:01.089Z,100381.45
2023-02-22T06:24:04.717Z,100384.79
2023-02-22T06:29:08.946Z,100387.94
2023-02-22T06:34:12.052Z,100394.68
2023-02-22T06:39:16.808Z,100390.32
2023-02-22T06:44:19.804Z,100393.39
2023-02-22T06:49:23.021Z,100401.22
2023-02-22T06:54:27.365Z,100407.70
2023-02-22T06:59:30.433Z,100420.27
2023-02-22T07:04:33.473Z,100426.98
2023-02-22T07:09:36.582Z,100434.18
2023-02-22T07:14:40.200Z,100435.39
2023-02-22T07:19:43.218Z,100444.17
2023-02-22T07:24:48.059Z,100451.29
2023-02-22T07:29:50.963Z,100454.80
2023-02-22T07:34:54.076Z,100452.80
2023-02-22T07:39:56.978Z,100459.61
2023-02-22T07:45:00.105Z,100459.54
2023-02-22T07:50:03.195Z,100467.05
2023-02-22T07:55:07.302Z,100474.73
2023-02-22T08:00:11.595Z,100476.21
2023-02-22T08:05:15.258Z,100485.96
2023-02-22T08:10:22.492Z,100485.17
2023-02-22T08:15:29.397Z,100488.81
2023-02-22T08:20:32.293Z,100491.30
2023-02-22T08:25:36.160Z,100493.17
2023-02-22T08:30:40.774Z,100498.69
2023-02-22T08:35:43.970Z,100501.33
2023-02-22T08:40:48.418Z,100502.82
2023-02-22T08:45:52.207Z,100509.13
2023-02-22T08:50:55.617Z,100510.73
2023-02-22T08:55:58.557Z,100507.34
2023-02-22T09:01:01.769Z,100509.57
2023-02-22T09:06:06.625Z,100512.77
2023-02-22T09:11:09.719Z,100514.91
2023-02-22T09:16:12.966Z,100519.80
2023-02-22T09:21:16.267Z,100519.16
2023-02-22T09:26:19.463Z,100521.94
2023-02-22T09:31:24.627Z,100526.27
2023-02-22T09:36:27.721Z,100531.65
2023-02-22T09:41:40.054Z,100530.02
2023-02-22T09:46:46.110Z,100532.33
2023-02-22T09:52:01.321Z,100532.86
2023-02-22T09:57:13.790Z,100533.66
2023-02-22T10:02:35.288Z,100539.61
2023-02-22T10:07:59.600Z,100538.21
2023-02-22T10:13:31.225Z,100538.69
2023-02-22T10:19:08.211Z,100543.09
2023-02-22T10:24:48.881Z,100543.38
2023-02-22T10:30:05.599Z,100540.43
2023-02-22T10:35:41.443Z,100535.95
2023-02-22T10:40:50.927Z,100538.45
2023-02-22T10:45:58.043Z,100540.90
2023-02-22T10:51:06.343Z,100542.52
2023-02-22T10:56:20.773Z,100542.20
2023-02-22T11:01:32.731Z,100547.65
2023-02-22T11:06:36.073Z,100546.10
2023-02-22T11:11:46.086Z,100543.84
2023-02-22T11:16:53.736Z,100541.88
2023-02-22T11:22:08.229Z,100551.40
2023-02-22T11:27:40.834Z,100545.64
2023-02-22T11:32:50.661Z,100550.85
2023-02-22T11:37:54.117Z,100548.96
2023-02-22T11:43:08.534Z,100551.59
2023-02-22T11:48:21.145Z,100553.54
2023-02-22T11:53:32.234Z,100556.55
2023-02-22T11:58:58.154Z,100563.27
2023-02-22T12:04:07.275Z,100559.16
2023-02-22T12:09:46.972Z,100568.98
2023-02-22T12:15:14.149Z,100566.71
2023-02-22T12:20:40.607Z,100569.22
2023-02-22T12:26:09.171Z,100566.95
2023-02-22T12:31:25.451Z,100575.80
2023-02-22T12:36:39.594Z,100575.34
2023-02-22T12:41:45.846Z,100574.17
2023-02-22T12:46:55.131Z,100575.92
2023-02-22T12:52:21.364Z,100567.48
2023-02-22T12:58:02.287Z,100568.46
2023-02-22T13:03:24.752Z,100563.13
2023-02-22T13:08:51.813Z,100563.30
2023-02-22T13:14:13.879Z,100566.46
2023-02-22T13:19:49.956Z,100568.97
2023-02-22T13:25:11.991Z,100572.81
2023-02-22T13:30:21.666Z,100578.48
2023-02-22T13:35:35.729Z,100579.89
2023-02-22T13:41:03.521Z,100576.20
2023-02-22T13:46:27.656Z,100578.60
2023-02-22T13:51:47.516Z,100573.48
2023-02-22T13:56:52.603Z,100578.04
2023-02-22T14:01:56.514Z,100579.69
2023-02-22T14:07:18.455Z,100583.05
2023-02-22T14:12:30.813Z,100590.00
2023-02-22T14:17:34.176Z,100588.14
2023-02-22T14:22:37.215Z,100593.77
2023-02-22T14:27:41.635Z,100595.45
2023-02-22T14:32:44.846Z,100599.81
2023-02-22T14:37:58.098Z,100598.41
2023-02-22T14:43:06.640Z,100595.70
2023-02-22T14:48:25.189Z,100589.56
2023-02-22T14:53:40.556Z,100587.90
2023-02-22T14:58:52.278Z,100590.48
2023-02-22T15:04:07.139Z,100591.28
2023-02-22T15:09:27.705Z,100598.15
2023-02-22T15:14:38.049Z,100602.78
2023-02-22T15:19:42.391Z,100602.36
2023-02-22T15:24:58.959Z,100600.54
2023-02-22T15:30:23.727Z,100602.09
2023-02-22T15:35:30.268Z,100598.94
2023-02-22T15:40:34.922Z,100604.98
2023-02-22T15:45:43.309Z,100611.05
2023-02-22T15:51:04.691Z,100612.17
2023-02-22T15:56:30.063Z,100611.07
2023-02-22T16:01:42.681Z,100616.15
2023-02-22T16:06:47.705Z,100617.23
2023-02-22T16:11:51.007Z,100616.55
2023-02-22T16:17:15.960Z,100621.77
2023-02-22T16:22:35.255Z,100629.20
2023-02-22T16:27:47.656Z,100631.23
2023-02-22T16:32:52.012Z,100631.91
2023-02-22T16:37:58.479Z,100639.27
2023-02-22T16:43:24.784Z,100643.30
2023-02-22T16:48:33.050Z,100652.77
2023-02-22T16:53:37.188Z,100659.02
2023-02-22T16:58:41.612Z,100656.08
2023-02-22T17:03:45.045Z,100655.88
2023-02-22T17:08:48.934Z,100664.39
2023-02-22T17:13:51.978Z,100673.42
2023-02-22T17:18:54.890Z,100676.36
2023-02-22T17:23:57.890Z,100677.23
2023-02-22T17:29:01.001Z,100670.50
2023-02-22T17:34:05.476Z,100672.00
2023-02-22T17:39:10.873Z,100670.72
2023-02-22T17:44:14.005Z,100677.34
2023-02-22T17:49:17.016Z,100679.81
2023-02-22T17:54:20.120Z,100685.91
2023-02-22T17:59:23.228Z,100686.35
2023-02-22T18:04:26.448Z,100689.17
2023-02-22T18:09:29.888Z,100689.08
2023-02-22T18:14:34.325Z,100690.53
2023-02-22T18:19:37.402Z,100691.29
2023-02-22T18:24:40.630Z,100694.34
2023-02-22T18:29:43.826Z,100696.35
2023-02-22T18:34:47.147Z,100703.49
2023-02-22T18:39:50.283Z,100702.08
2023-02-22T18:44:54.796Z,100699.98
2023-02-22T18:49:57.803Z,100696.85
2023-02-22T18:55:01.329Z,100695.34
2023-02-22T19:00:07.729Z,100697.73
2023-02-22T19:05:12.573Z,100694.73
2023-02-22T19:10:15.765Z,100683.77
2023-02-22T19:15:18.998Z,100679.59
2023-02-22T19:20:22.092Z,100682.29
2023-02-22T19:25:25.607Z,100679.95
2023-02-22T19:30:28.813Z,100686.52
2023-02-22T19:35:32.025Z,100686.26
2023-02-22T19:40:34.931Z,100688.14
2023-02-22T19:45:40.224Z,100683.61
2023-02-22T19:50:49.441Z,100682.81
2023-02-22T19:55:52.447Z,100686.62
2023-02-22T20:00:55.347Z,100690.16
2023-02-22T20:05:58.598Z,100691.25
2023-02-22T20:11:01.566Z,100683.49
2023-02-22T20:16:05.241Z,100687.07
2023-02-22T20:21:10.214Z,100687.42
2023-02-22T20:26:24.947Z,100689.02
2023-02-22T20:31:29.739Z,100694.39
2023-02-22T20:36:37.098Z,100695.52
2023-02-22T20:41:42.647Z,100694.54
2023-02-22T20:46:46.870Z,100691.65
2023-02-22T20:51:49.890Z,100694.26
2023-02-22T20:56:53.211Z,100695.91
2023-02-22T21:01:56.418Z,100693.27
2023-02-22T21:07:03.488Z,100691.41
2023-02-22T21:12:13.434Z,100693.52
2023-02-22T21:17:21.823Z,100694.83
2023-02-22T21:22:25.468Z,100693.54
2023-02-22T21:27:28.552Z,100695.23
2023-02-22T21:32:31.696Z,100690.04
2023-02-22T21:37:34.767Z,100689.48
2023-02-22T21:42:38.194Z,100694.42
2023-02-22T21:47:41.600Z,100701.13
2023-02-22T21:52:47.154Z,100703.20
2023-02-22T21:57:50.397Z,100700.48
2023-02-22T22:02:53.423Z,100697.73
2023-02-22T22:07:56.599Z,100699.36
2023-02-22T22:13:00.246Z,100697.96
2023-02-22T22:18:06.773Z,100693.51
2023-02-22T22:23:09.821Z,100691.21
2023-02-22T22:28:12.721Z,100694.35
2023-02-22T22:33:15.817Z,100697.36
2023-02-22T22:38:20.879Z,100702.86
2023-02-22T22:43:23.775Z,100698.63
2023-02-22T22:48:28.215Z,100690.00
2023-02-22T22:53:35.221Z,100692.25
2023-02-22T22:58:38.224Z,100692.80
2023-02-22T23:03:43.730Z,100693.54
2023-02-22T23:08:46.924Z,100689.79
2023-02-22T23:13:50.309Z,100696.91
2023-02-22T23:18:53.530Z,100695.80
2023-02-22T23:23:58.743Z,100701.67
2023-02-22T23:29:02.896Z,100695.20
2023-02-22T23:34:11.302Z,100699.11
2023-02-22T23:39:17.005Z,100698.31
2023-02-22T23:44:21.663Z,100693.39
2023-02-22T23:49:36.078Z,100695.44
2023-02-22T23:54:44.122Z,100692.84
2023-02-22T23:59:50.738Z,100698.00
